Time;durP1;ratioP1;P1;durP2;ratioP2;P2;SDS_P1;SDS_P2;PMS_P1;PMS_P2;Temp;Humidity;BMP_temperature;BMP_pressure;BME280_temperature;BME280_humidity;BME280_pressure;Samples;Min_cycle;Max_cycle;Signal;HPM_P1;HPM_P2
2022/12/14 00:00:50;;;;;;;;;;;5.80;96.60;;;;;;5030967;28;20021;-70
2022/12/14 00:03:16;;;;;;;22.45;12.95;;;5.90;97.00;;;;;;5030299;28;19970;-69
2022/12/14 00:05:43;;;;;;;22.05;12.65;;;5.90;97.00;;;;;;5029024;28;20030;-70
2022/12/14 00:08:09;;;;;;;18.83;10.95;;;5.90;96.90;;;;;;5030197;28;20075;-70
2022/12/14 00:10:36;;;;;;;22.88;13.70;;;5.80;96.70;;;;;;5030124;28;20029;-70
2022/12/14 00:13:02;;;;;;;26.05;14.10;;;5.70;96.90;;;;;;5029470;28;20033;-70
2022/12/14 00:15:28;;;;;;;24.33;14.40;;;5.60;96.80;;;;;;5030164;28;20489;-70
2022/12/14 00:17:54;;;;;;;27.97;14.63;;;5.50;96.50;;;;;;5029735;28;20049;-69
2022/12/14 00:20:20;;;;;;;29.60;14.38;;;5.50;96.70;;;;;;5031146;28;20057;-69
2022/12/14 00:22:45;;;;;;;28.02;14.88;;;5.40;96.60;;;;;;5029616;28;20051;-70
2022/12/14 00:25:11;;;;;;;27.27;15.73;;;5.40;96.80;;;;;;5030118;28;20033;-69
2022/12/14 00:27:44;;;;;;;33.50;18.47;;;5.40;96.70;;;;;;5029639;28;20033;-69
2022/12/14 00:30:14;;;;;;;29.50;15.18;;;5.40;96.80;;;;;;5030573;28;20040;-69
2022/12/14 00:32:40;;;;;;;29.50;14.82;;;5.40;96.60;;;;;;5028681;28;20497;-69
2022/12/14 00:35:10;;;;;;;28.93;15.20;;;5.30;96.60;;;;;;5028699;28;20025;-70
2022/12/14 00:37:36;;;;;;;28.02;15.55;;;5.30;96.60;;;;;;5029263;28;20408;-70
2022/12/14 00:40:04;;;;;;;27.35;15.15;;;5.30;96.20;;;;;;5029688;28;20037;-70
2022/12/14 00:42:30;;;;;;;30.83;16.98;;;5.30;96.00;;;;;;5030843;28;20409;-69
2022/12/14 00:44:55;;;;;;;30.60;17.03;;;5.30;96.30;;;;;;5030903;28;20030;-69
2022/12/14 00:47:21;;;;;;;28.63;15.63;;;5.30;96.00;;;;;;5031429;28;20034;-69
2022/12/14 00:49:47;;;;;;;29.33;16.97;;;5.20;95.90;;;;;;5029394;28;20112;-69
2022/12/14 00:52:12;;;;;;;28.00;16.10;;;5.30;96.40;;;;;;5027163;28;20141;-69
2022/12/14 00:54:38;;;;;;;31.87;16.00;;;5.30;96.50;;;;;;5030517;28;20385;-69
2022/12/14 00:57:03;;;;;;;30.13;15.37;;;5.30;96.50;;;;;;5029367;28;20029;-70
2022/12/14 00:59:29;;;;;;;31.47;17.07;;;5.30;96.50;;;;;;5032702;28;20065;-70
2022/12/14 01:01:55;;;;;;;28.57;15.97;;;5.30;96.40;;;;;;5033077;28;20037;-69
2022/12/14 01:04:23;;;;;;;32.67;17.02;;;5.30;96.40;;;;;;5016413;28;20452;-69
2022/12/14 01:06:51;;;;;;;35.63;17.73;;;5.20;96.10;;;;;;5033264;28;20033;-70
2022/12/14 01:09:18;;;;;;;30.85;15.98;;;5.20;95.90;;;;;;5034627;28;20469;-69
2022/12/14 01:11:44;;;;;;;33.53;18.95;;;5.20;95.90;;;;;;5033427;28;20028;-69
2022/12/14 01:14:12;;;;;;;34.50;18.48;;;5.10;95.90;;;;;;5033351;28;20578;-69
2022/12/14 01:16:38;;;;;;;33.65;17.15;;;5.10;96.20;;;;;;5032591;28;20045;-69
2022/12/14 01:19:04;;;;;;;32.42;16.63;;;5.10;96.10;;;;;;5033277;28;20378;-70
2022/12/14 01:21:30;;;;;;;32.72;16.95;;;5.10;96.10;;;;;;5034109;28;20036;-69
2022/12/14 01:23:58;;;;;;;35.53;17.95;;;5.10;96.20;;;;;;5031924;28;20029;-70
2022/12/14 01:26:25;;;;;;;33.72;17.17;;;5.00;95.90;;;;;;5034368;28;20117;-70
2022/12/14 01:28:56;;;;;;;34.78;17.83;;;5.00;96.10;;;;;;5033352;28;20029;-70
2022/12/14 01:31:23;;;;;;;32.72;19.10;;;5.00;96.10;;;;;;5031546;28;20025;-70
2022/12/14 01:33:49;;;;;;;35.22;19.95;;;4.90;96.10;;;;;;5031800;28;20041;-70
2022/12/14 01:36:20;;;;;;;36.72;20.95;;;5.00;96.30;;;;;;5033063;28;20021;-70
2022/12/14 01:38:50;;;;;;;34.67;18.95;;;5.00;96.20;;;;;;5032842;28;20049;-70
2022/12/14 01:41:32;;;;;;;32.70;18.20;;;5.00;96.20;;;;;;5032049;28;20445;-70
2022/12/14 01:44:00;;;;;;;32.70;17.95;;;4.90;96.30;;;;;;5031798;28;20034;-70
2022/12/14 01:46:32;;;;;;;34.17;18.75;;;4.90;96.40;;;;;;5031765;28;20581;-70
2022/12/14 01:49:28;;;;;;;25.50;12.80;;;4.90;96.30;;;;;;5032122;28;20402;-69
2022/12/14 01:52:00;;;;;;;33.03;18.25;;;4.90;96.60;;;;;;5031004;28;20034;-69
2022/12/14 01:54:28;;;;;;;33.58;17.77;;;4.90;96.50;;;;;;5031429;28;20116;-70
2022/12/14 01:56:54;;;;;;;30.45;17.58;;;5.00;96.50;;;;;;5031392;28;20036;-69
2022/12/14 01:59:27;;;;;;;27.73;15.73;;;5.10;96.90;;;;;;5033401;28;20037;-69
2022/12/14 02:01:54;;;;;;;26.88;15.05;;;5.20;96.90;;;;;;5030538;28;20029;-69
2022/12/14 02:04:20;;;;;;;31.23;16.38;;;5.30;97.10;;;;;;5033137;28;20029;-69
2022/12/14 02:06:48;;;;;;;27.75;13.95;;;5.40;97.20;;;;;;5031595;28;20485;-69
2022/12/14 02:09:21;;;;;;;30.42;14.88;;;5.50;97.20;;;;;;5032962;28;20036;-69
2022/12/14 02:12:14;;;;;;;27.80;15.25;;;5.50;96.80;;;;;;5027817;28;20029;-70
2022/12/14 02:14:41;;;;;;;31.50;16.48;;;5.60;96.50;;;;;;5028602;28;20022;-69
2022/12/14 02:17:09;;;;;;;29.50;16.35;;;5.50;96.40;;;;;;5032048;28;20033;-70
2022/12/14 02:19:36;;;;;;;31.55;17.13;;;5.40;96.20;;;;;;5031239;28;20535;-69
2022/12/14 02:22:17;;;;;;;;;;;5.40;96.20;;;;;;5032371;28;20037;-69
2022/12/14 02:24:42;;;;;;;31.15;16.15;;;5.40;96.10;;;;;;5032011;28;19987;-69
2022/12/14 02:27:26;;;;;;;34.50;17.67;;;5.30;96.00;;;;;;5034034;28;20044;-69
2022/12/14 02:30:13;;;;;;;32.03;17.33;;;5.30;95.90;;;;;;5028848;28;20123;-70
2022/12/14 02:32:56;;;;;;;30.53;16.90;;;5.20;96.30;;;;;;5047097;28;20501;-70
2022/12/14 02:35:41;;;;;;;32.55;17.52;;;5.20;96.40;;;;;;5031629;28;20433;-70
2022/12/14 02:38:45;;;;;;;30.05;17.30;;;5.10;96.20;;;;;;5031673;28;20041;-70
2022/12/14 02:41:46;;;;;;;33.97;16.98;;;5.10;96.10;;;;;;5029293;28;20029;-70
2022/12/14 02:44:49;;;;;;;34.35;17.17;;;5.10;96.20;;;;;;5043774;28;20037;-70
2022/12/14 02:47:25;;;;;;;33.78;17.10;;;5.10;96.20;;;;;;5031972;28;20228;-70
2022/12/14 02:50:02;;;;;;;36.05;17.52;;;5.10;96.20;;;;;;5032164;28;20028;-70
2022/12/14 02:52:46;;;;;;;;;;;5.10;96.40;;;;;;5033083;28;20044;-69
2022/12/14 02:55:24;;;;;;;33.00;17.23;;;5.10;96.20;;;;;;5028510;28;19919;-69
2022/12/14 02:57:52;;;;;;;33.55;16.60;;;5.10;96.20;;;;;;5028400;28;20079;-69
2022/12/14 03:00:19;;;;;;;33.45;18.50;;;5.10;96.50;;;;;;5032914;28;20439;-69
2022/12/14 03:02:46;;;;;;;32.40;17.10;;;5.10;96.30;;;;;;5031066;28;20033;-69
2022/12/14 03:05:12;;;;;;;34.25;17.23;;;5.10;96.40;;;;;;5030449;28;20404;-70
2022/12/14 03:07:43;;;;;;;29.52;16.40;;;5.10;96.40;;;;;;5031677;28;20033;-69
2022/12/14 03:10:27;;;;;;;31.13;17.70;;;5.00;96.20;;;;;;5031251;28;20221;-70
2022/12/14 03:13:00;;;;;;;31.67;15.35;;;5.10;96.30;;;;;;5041088;28;20131;-70
2022/12/14 03:15:27;;;;;;;29.50;16.10;;;5.20;96.60;;;;;;5031252;28;20036;-69
2022/12/14 03:17:57;;;;;;;31.02;15.48;;;5.20;96.70;;;;;;5030938;28;20040;-70
2022/12/14 03:20:24;;;;;;;28.75;15.50;;;5.30;96.80;;;;;;5029088;28;20127;-70
2022/12/14 03:22:59;;;;;;;31.63;15.93;;;5.30;96.70;;;;;;5025640;28;20109;-70
2022/12/14 03:25:32;;;;;;;27.95;15.77;;;5.40;96.70;;;;;;5031741;28;20404;-70
2022/12/14 03:28:06;;;;;;;27.10;15.10;;;5.50;96.70;;;;;;5030999;28;20429;-69
2022/12/14 03:30:35;;;;;;;25.67;14.82;;;5.60;96.80;;;;;;5032479;28;20032;-70
2022/12/14 03:33:06;;;;;;;26.23;13.60;;;5.60;96.70;;;;;;5031037;28;20112;-70
2022/12/14 03:35:38;;;;;;;27.70;15.05;;;5.50;96.30;;;;;;5031462;28;20033;-70
2022/12/14 03:38:15;;;;;;;26.77;15.10;;;5.60;96.40;;;;;;5029511;28;20041;-70
2022/12/14 03:41:13;;;;;;;27.30;14.43;;;5.60;96.20;;;;;;5023901;28;20018;-70
2022/12/14 03:44:03;;;;;;;28.63;14.90;;;5.50;96.50;;;;;;5030512;28;20041;-70
2022/12/14 03:46:33;;;;;;;26.58;14.85;;;5.40;96.20;;;;;;5030662;28;20046;-69
2022/12/14 03:49:15;;;;;;;30.85;15.85;;;5.40;96.30;;;;;;5030674;28;20034;-70
2022/12/14 03:51:50;;;;;;;27.23;15.35;;;5.40;96.30;;;;;;5023845;28;20033;-70
2022/12/14 03:54:30;;;;;;;28.40;15.73;;;5.40;96.20;;;;;;5031497;28;20021;-69
2022/12/14 03:57:08;;;;;;;27.13;15.57;;;5.40;96.10;;;;;;5027943;28;20021;-69
2022/12/14 03:59:56;;;;;;;32.95;17.95;;;5.40;96.10;;;;;;5030086;28;20451;-70
2022/12/14 04:02:26;;;;;;;30.65;15.40;;;5.20;95.70;;;;;;5031382;28;20421;-70
2022/12/14 04:05:15;;;;;;;32.80;17.77;;;5.10;95.70;;;;;;5029900;28;20024;-69
2022/12/14 04:08:11;;;;;;;31.65;15.45;;;5.10;96.00;;;;;;5023145;28;20113;-69
2022/12/14 04:19:23;;;;;;;32.25;17.10;;;5.00;96.10;;;;;;5030077;28;20132;-69
2022/12/14 04:22:00;;;;;;;39.03;17.52;;;4.90;96.00;;;;;;5028010;28;20060;-69
2022/12/14 04:27:42;;;;;;;34.85;17.85;;;4.90;95.90;;;;;;5030494;28;20115;-69
2022/12/14 04:30:10;;;;;;;36.38;19.30;;;4.90;96.00;;;;;;5030626;28;20529;-69
2022/12/14 04:32:54;;;;;;;34.92;19.15;;;4.80;95.80;;;;;;5031093;28;20037;-69
2022/12/14 04:35:22;;;;;;;39.70;19.58;;;4.80;95.80;;;;;;5033380;28;20172;-69
2022/12/14 04:37:57;;;;;;;35.55;18.67;;;4.70;95.90;;;;;;5033492;28;20033;-70
2022/12/14 04:40:44;;;;;;;44.30;19.60;;;4.70;95.80;;;;;;5035354;28;20848;-70
2022/12/14 04:43:12;;;;;;;;;;;4.60;95.40;;;;;;5033089;28;20079;-70
2022/12/14 04:45:43;;;;;;;;;;;4.60;95.60;;;;;;5032357;28;19916;-70
2022/12/14 04:48:20;;;;;;;40.88;21.38;;;4.50;95.40;;;;;;5028859;28;20376;-70
2022/12/14 04:50:51;;;;;;;37.03;18.60;;;4.50;95.50;;;;;;5027683;28;20100;-69
2022/12/14 04:53:22;;;;;;;39.83;19.65;;;4.40;95.90;;;;;;5032911;28;20111;-69
2022/12/14 04:55:56;;;;;;;38.67;20.75;;;4.40;95.90;;;;;;5033840;28;20033;-70
2022/12/14 04:58:25;;;;;;;43.42;20.85;;;4.40;96.00;;;;;;5032074;28;20045;-69
2022/12/14 05:01:09;;;;;;;43.45;22.92;;;4.40;96.20;;;;;;5033576;28;20045;-69
2022/12/14 05:03:54;;;;;;;45.58;21.58;;;4.40;96.10;;;;;;5033186;28;20041;-69
2022/12/14 05:06:34;;;;;;;40.90;20.55;;;4.40;96.00;;;;;;5031455;28;20029;-69
2022/12/14 05:09:08;;;;;;;36.40;18.27;;;4.50;96.20;;;;;;5044370;28;20120;-69
2022/12/14 05:12:02;;;;;;;44.47;22.25;;;4.40;96.30;;;;;;5033217;28;20053;-69
2022/12/14 05:14:40;;;;;;;40.72;21.58;;;4.50;96.60;;;;;;5033090;28;20098;-69
2022/12/14 05:17:06;;;;;;;45.53;21.90;;;4.40;96.30;;;;;;5047573;28;20075;-70
2022/12/14 05:19:32;;;;;;;41.45;20.15;;;4.30;96.30;;;;;;5033476;28;20038;-70
2022/12/14 05:22:04;;;;;;;36.83;20.05;;;4.40;96.60;;;;;;5033360;28;20037;-69
2022/12/14 05:24:30;;;;;;;42.53;21.20;;;4.40;96.60;;;;;;5034125;28;20036;-70
2022/12/14 05:26:55;;;;;;;44.50;21.43;;;4.40;96.60;;;;;;5033657;28;20393;-70
2022/12/14 05:29:21;;;;;;;44.30;22.13;;;4.40;96.40;;;;;;5034143;28;20040;-69
2022/12/14 05:31:47;;;;;;;47.90;22.63;;;4.50;96.40;;;;;;5031805;28;20112;-70
2022/12/14 05:34:12;;;;;;;45.60;20.47;;;4.50;96.30;;;;;;5033777;28;20482;-70
2022/12/14 05:36:38;;;;;;;46.93;21.10;;;4.40;96.30;;;;;;5033344;28;20037;-71
2022/12/14 05:39:03;;;;;;;46.53;20.87;;;4.40;96.40;;;;;;5033513;28;20497;-69
2022/12/14 05:41:29;;;;;;;43.00;21.43;;;4.30;96.30;;;;;;5033718;28;20031;-70
2022/12/14 05:43:54;;;;;;;50.80;22.93;;;4.20;96.10;;;;;;5032198;28;20041;-70
2022/12/14 05:46:20;;;;;;;50.77;23.97;;;4.10;96.30;;;;;;5033578;28;20102;-70
2022/12/14 05:48:46;;;;;;;52.50;24.42;;;4.00;96.40;;;;;;5032794;28;20068;-69
2022/12/14 05:51:12;;;;;;;49.00;24.30;;;4.00;96.40;;;;;;5030620;28;20056;-71
2022/12/14 05:53:39;;;;;;;52.80;24.98;;;4.00;96.40;;;;;;5028922;28;20041;-70
2022/12/14 05:56:05;;;;;;;;;;;3.90;96.40;;;;;;5033931;28;20036;-70
2022/12/14 05:58:32;;;;;;;50.65;22.17;;;3.90;96.30;;;;;;5032034;28;19979;-70
2022/12/14 06:01:02;;;;;;;;;;;3.80;96.40;;;;;;5031409;28;20032;-70
2022/12/14 06:03:27;;;;;;;50.92;23.50;;;3.70;96.60;;;;;;5032625;28;19962;-70
2022/12/14 06:05:53;;;;;;;47.17;22.98;;;3.80;96.60;;;;;;5032859;28;20025;-69
2022/12/14 06:08:20;;;;;;;55.05;25.40;;;3.70;96.60;;;;;;5032187;28;20124;-69
2022/12/14 06:10:45;;;;;;;54.58;24.48;;;3.70;96.70;;;;;;5032287;28;20626;-69
2022/12/14 06:13:11;;;;;;;53.03;23.10;;;3.70;96.80;;;;;;5031790;28;20064;-70
2022/12/14 06:15:37;;;;;;;70.07;33.87;;;3.70;96.60;;;;;;5032173;28;20059;-68
2022/12/14 06:18:02;;;;;;;84.03;38.53;;;3.70;96.60;;;;;;5031865;28;20049;-69
2022/12/14 06:20:28;;;;;;;79.70;38.43;;;3.70;96.70;;;;;;5031321;28;20033;-68
2022/12/14 06:22:54;;;;;;;76.65;36.65;;;3.70;96.60;;;;;;5031952;28;20809;-69
2022/12/14 06:25:20;;;;;;;86.78;41.42;;;3.50;96.60;;;;;;5033573;28;20021;-69
2022/12/14 06:27:46;;;;;;;86.45;42.78;;;3.60;97.10;;;;;;5032044;28;20030;-70
2022/12/14 06:30:12;;;;;;;83.17;42.30;;;3.60;97.00;;;;;;5032411;28;20091;-69
2022/12/14 06:32:37;;;;;;;88.20;42.08;;;3.70;97.10;;;;;;5031510;28;20353;-69
2022/12/14 06:35:03;;;;;;;76.60;34.93;;;3.60;97.00;;;;;;5032083;28;20120;-69
2022/12/14 06:37:30;;;;;;;83.00;38.75;;;3.70;97.10;;;;;;5032360;28;20108;-68
2022/12/14 06:39:56;;;;;;;79.32;37.42;;;3.60;97.20;;;;;;5030866;28;20052;-69
2022/12/14 06:42:21;;;;;;;76.53;37.57;;;3.50;97.10;;;;;;5030769;28;20029;-68
2022/12/14 06:44:47;;;;;;;72.93;33.33;;;3.50;96.80;;;;;;5031806;28;20512;-69
2022/12/14 06:47:13;;;;;;;70.78;32.33;;;3.50;97.30;;;;;;5029432;28;20030;-70
2022/12/14 06:49:38;;;;;;;63.63;25.60;;;3.60;97.30;;;;;;5031690;28;20456;-70
2022/12/14 06:52:04;;;;;;;47.77;21.77;;;3.60;97.20;;;;;;5031270;28;20061;-70
2022/12/14 06:54:29;;;;;;;54.43;23.80;;;3.60;97.60;;;;;;5028434;28;20037;-70
2022/12/14 06:56:55;;;;;;;53.93;24.43;;;3.60;97.60;;;;;;5031427;28;20260;-69
2022/12/14 06:59:21;;;;;;;48.03;23.93;;;3.70;97.50;;;;;;5030095;28;20148;-70
2022/12/14 07:01:46;;;;;;;49.17;23.42;;;3.70;97.30;;;;;;5027168;28;20033;-70
2022/12/14 07:04:13;;;;;;;53.67;23.07;;;3.80;96.80;;;;;;5031477;28;20043;-70
2022/12/14 07:06:39;;;;;;;49.63;23.60;;;3.70;96.70;;;;;;5031426;28;20017;-70
2022/12/14 07:09:07;;;;;;;69.65;30.40;;;3.70;96.60;;;;;;5027506;28;20096;-68
2022/12/14 07:11:33;;;;;;;67.40;32.65;;;3.60;96.50;;;;;;5027066;28;20440;-72
2022/12/14 07:14:01;;;;;;;71.32;35.28;;;3.60;96.50;;;;;;5023018;28;20167;-72
2022/12/14 07:16:30;;;;;;;75.10;31.00;;;3.50;96.80;;;;;;5026516;28;20033;-72
2022/12/14 07:18:56;;;;;;;57.72;26.15;;;3.60;96.80;;;;;;5024693;28;20046;-72
2022/12/14 07:21:23;;;;;;;55.05;26.35;;;3.70;96.50;;;;;;5028371;28;20025;-72
2022/12/14 07:23:50;;;;;;;60.83;28.00;;;3.70;96.40;;;;;;5028472;28;20428;-72
2022/12/14 07:26:22;;;;;;;56.42;28.13;;;3.80;96.60;;;;;;5030760;28;20531;-72
2022/12/14 07:28:48;;;;;;;53.50;27.05;;;3.80;96.50;;;;;;5030343;28;20041;-72
2022/12/14 07:31:15;;;;;;;;;;;3.90;96.40;;;;;;5030948;28;20029;-71
2022/12/14 07:33:41;;;;;;;59.55;28.15;;;3.90;96.10;;;;;;5031742;28;20399;-72
2022/12/14 07:36:27;;;;;;;55.63;27.20;;;4.00;96.10;;;;;;5031819;28;20033;-72
2022/12/14 07:38:54;;;;;;;52.15;27.30;;;4.10;96.00;;;;;;5031786;28;20115;-72
2022/12/14 07:41:23;;;;;;;59.63;27.23;;;4.10;95.80;;;;;;5029145;28;20022;-71
2022/12/14 07:43:50;;;;;;;61.90;26.42;;;4.20;95.60;;;;;;5025135;28;20501;-72
2022/12/14 07:46:21;;;;;;;56.53;28.17;;;4.10;95.50;;;;;;5027405;28;20030;-72
2022/12/14 07:48:50;;;;;;;55.08;27.77;;;4.10;95.80;;;;;;5026258;28;20037;-72
2022/12/14 07:51:17;;;;;;;55.28;27.88;;;4.10;95.80;;;;;;5027564;28;20025;-72
2022/12/14 07:53:44;;;;;;;53.60;28.02;;;4.00;95.90;;;;;;5025438;28;20038;-72
2022/12/14 07:56:14;;;;;;;49.50;25.02;;;4.20;96.00;;;;;;5028223;28;20044;-71
2022/12/14 07:58:41;;;;;;;52.10;25.35;;;4.30;95.90;;;;;;5029026;28;20041;-72
2022/12/14 08:01:15;;;;;;;53.80;27.60;;;4.30;95.50;;;;;;5029557;28;20100;-72
2022/12/14 08:03:47;;;;;;;52.03;26.33;;;4.40;95.50;;;;;;5026874;28;20043;-72
2022/12/14 08:06:14;;;;;;;50.63;25.30;;;4.40;95.40;;;;;;5029582;28;20037;-74
2022/12/14 08:08:40;;;;;;;45.03;24.00;;;4.50;95.40;;;;;;5028351;28;20453;-73
2022/12/14 08:11:06;;;;;;;50.70;23.58;;;4.50;95.00;;;;;;5031615;28;20038;-74
2022/12/14 08:13:33;;;;;;;48.97;24.30;;;4.50;95.00;;;;;;5032596;28;20509;-73
2022/12/14 08:16:08;;;;;;;53.33;26.10;;;4.50;95.20;;;;;;5033393;28;20052;-73
2022/12/14 08:18:34;;;;;;;51.33;26.23;;;4.50;95.10;;;;;;5030269;28;20057;-73
2022/12/14 08:21:02;;;;;;;;;;;4.60;95.10;;;;;;5033413;28;20026;-74
2022/12/14 08:23:28;;;;;;;58.42;26.50;;;4.60;95.00;;;;;;5031729;28;20402;-73
2022/12/14 08:25:59;;;;;;;58.70;27.55;;;4.60;95.20;;;;;;5029928;28;20021;-72
2022/12/14 08:28:26;;;;;;;50.30;23.25;;;4.60;95.00;;;;;;5034166;28;20028;-73
2022/12/14 08:30:52;;;;;;;50.75;25.67;;;4.50;95.20;;;;;;5030639;28;20032;-74
2022/12/14 08:33:20;;;;;;;56.20;25.80;;;4.40;95.80;;;;;;5031165;28;20033;-72
2022/12/14 08:35:46;;;;;;;55.83;28.65;;;4.50;95.80;;;;;;5032496;28;20052;-72
2022/12/14 08:38:12;;;;;;;61.57;28.77;;;4.70;95.70;;;;;;5029553;28;20386;-73
2022/12/14 08:40:38;;;;;;;65.05;30.67;;;4.80;95.50;;;;;;5030399;28;20056;-72
2022/12/14 08:43:05;;;;;;;64.07;31.73;;;4.80;95.30;;;;;;5030539;28;20055;-72
2022/12/14 08:45:30;;;;;;;61.15;31.30;;;4.90;95.20;;;;;;5033932;28;20025;-72
2022/12/14 08:47:57;;;;;;;64.28;30.90;;;4.90;95.10;;;;;;5032802;28;20104;-73
2022/12/14 08:50:23;;;;;;;59.83;29.52;;;4.80;96.10;;;;;;5033994;28;20045;-72
2022/12/14 08:52:49;;;;;;;64.43;30.70;;;4.80;96.00;;;;;;5032623;28;20052;-74
2022/12/14 08:55:14;;;;;;;63.67;29.37;;;5.00;95.80;;;;;;5033928;28;20033;-72
2022/12/14 08:57:40;;;;;;;53.87;26.30;;;5.30;95.50;;;;;;5032805;28;20287;-72
2022/12/14 09:00:10;;;;;;;47.50;26.58;;;5.50;94.80;;;;;;5033155;28;20041;-71
2022/12/14 09:02:36;;;;;;;50.92;24.50;;;5.90;95.00;;;;;;5031020;28;20160;-73
2022/12/14 09:05:01;;;;;;;46.17;23.05;;;6.00;94.00;;;;;;5033124;28;20147;-72
2022/12/14 09:07:28;;;;;;;38.87;21.37;;;6.30;94.10;;;;;;5032637;28;20047;-72
2022/12/14 09:09:54;;;;;;;41.30;22.05;;;6.60;93.40;;;;;;5031702;28;20359;-74
2022/12/14 09:12:19;;;;;;;43.93;23.77;;;6.90;93.00;;;;;;5033637;28;20116;-73
2022/12/14 09:14:48;;;;;;;46.03;24.60;;;6.70;93.40;;;;;;5033001;28;20486;-72
2022/12/14 09:17:14;;;;;;;40.42;22.48;;;6.80;93.50;;;;;;5033015;28;20390;-73
2022/12/14 09:19:40;;;;;;;46.30;24.77;;;6.80;93.50;;;;;;5031606;28;20037;-73
2022/12/14 09:22:06;;;;;;;49.72;24.55;;;6.80;93.90;;;;;;5033083;28;20615;-72
2022/12/14 09:24:32;;;;;;;53.95;24.85;;;6.90;93.80;;;;;;5031680;28;20108;-75
2022/12/14 09:27:01;;;;;;;44.47;24.77;;;6.90;94.10;;;;;;5031435;28;20179;-76
2022/12/14 09:29:27;;;;;;;40.92;23.13;;;7.00;94.10;;;;;;5032811;28;20017;-75
2022/12/14 09:31:53;;;;;;;41.10;22.98;;;7.00;93.90;;;;;;5032544;28;20049;-74
2022/12/14 09:34:19;;;;;;;46.72;22.63;;;7.00;93.80;;;;;;5034301;28;20022;-76
2022/12/14 09:36:46;;;;;;;48.90;23.92;;;7.00;94.60;;;;;;5032730;28;20041;-74
2022/12/14 09:39:13;;;;;;;56.17;27.17;;;7.00;94.20;;;;;;5032969;28;20513;-75
2022/12/14 09:41:51;;;;;;;53.35;24.55;;;7.00;94.00;;;;;;5032017;28;20431;-75
2022/12/14 09:44:23;;;;;;;48.33;23.50;;;7.00;94.00;;;;;;5033377;28;20087;-75
2022/12/14 09:47:01;;;;;;;51.38;24.00;;;7.00;94.80;;;;;;5032475;28;20030;-76
2022/12/14 09:49:30;;;;;;;49.17;23.35;;;7.00;95.20;;;;;;5032765;28;20116;-73
2022/12/14 09:52:02;;;;;;;44.97;21.63;;;7.20;94.80;;;;;;5032161;28;20064;-73
2022/12/14 09:54:35;;;;;;;43.17;21.95;;;7.10;94.20;;;;;;5032356;28;20059;-74
2022/12/14 09:57:12;;;;;;;41.90;21.90;;;7.10;94.30;;;;;;5032246;28;20041;-73
2022/12/14 09:59:38;;;;;;;;;;;7.10;95.00;;;;;;5032456;28;20045;-74
2022/12/14 10:02:20;;;;;;;42.90;20.95;;;7.30;94.50;;;;;;5032786;28;19909;-74
2022/12/14 10:05:01;;;;;;;40.83;21.70;;;7.20;95.00;;;;;;5031500;28;20029;-75
2022/12/14 10:08:04;;;;;;;42.83;21.98;;;7.30;95.40;;;;;;5033122;28;20029;-73
2022/12/14 10:10:53;;;;;;;48.47;20.50;;;7.30;94.60;;;;;;5030877;28;20061;-73
2022/12/14 10:13:59;;;;;;;42.17;21.05;;;7.40;94.80;;;;;;5032816;28;20033;-75
2022/12/14 10:16:38;;;;;;;44.85;22.02;;;7.50;94.70;;;;;;5030961;28;20053;-73
2022/12/14 10:19:07;;;;;;;43.70;20.77;;;7.70;94.90;;;;;;5032767;28;20132;-74
2022/12/14 10:21:56;;;;;;;46.45;19.35;;;7.70;95.00;;;;;;5031710;28;20021;-72
2022/12/14 10:24:32;;;;;;;50.00;20.45;;;7.80;95.20;;;;;;5031243;28;20037;-75
2022/12/14 10:27:00;;;;;;;46.80;20.63;;;7.90;95.00;;;;;;5030790;28;20527;-75
2022/12/14 10:29:36;;;;;;;42.45;18.50;;;8.10;95.00;;;;;;5030755;28;20116;-74
2022/12/14 10:32:38;;;;;;;53.28;23.38;;;8.20;95.00;;;;;;5030850;28;20033;-74
2022/12/14 10:35:15;;;;;;;46.85;19.98;;;8.30;95.00;;;;;;5024824;28;20124;-74
2022/12/14 10:37:50;;;;;;;35.75;19.60;;;8.40;94.70;;;;;;5024020;28;20571;-73
2022/12/14 10:40:30;;;;;;;37.00;19.70;;;8.40;94.30;;;;;;5029170;28;20044;-73
2022/12/14 10:43:27;;;;;;;34.70;19.20;;;8.40;94.00;;;;;;5027961;28;20024;-74
2022/12/14 10:46:01;;;;;;;37.35;19.27;;;8.30;93.90;;;;;;5030337;28;20533;-75
2022/12/14 10:48:38;;;;;;;35.25;18.95;;;8.30;94.00;;;;;;5031661;28;20116;-74
2022/12/14 10:51:11;;;;;;;30.73;16.23;;;8.20;94.00;;;;;;5029546;28;20029;-76
2022/12/14 10:53:40;;;;;;;33.90;18.10;;;8.10;94.40;;;;;;5030891;28;20026;-75
2022/12/14 10:56:29;;;;;;;35.80;19.00;;;8.10;94.30;;;;;;5028598;28;20034;-73
2022/12/14 10:59:22;;;;;;;37.33;19.95;;;8.10;94.00;;;;;;5029379;28;20049;-73
2022/12/14 11:02:11;;;;;;;37.70;19.23;;;8.00;94.60;;;;;;5044440;28;20391;-74
2022/12/14 11:04:44;;;;;;;13.88;7.85;;;8.10;95.60;;;;;;5030874;28;20029;-73
2022/12/14 11:07:11;;;;;;;21.30;11.10;;;8.60;96.10;;;;;;5031650;28;20025;-74
2022/12/14 11:09:38;;;;;;;7.10;4.78;;;8.60;95.80;;;;;;5030969;28;20587;-74
2022/12/14 11:12:18;;;;;;;8.63;4.13;;;9.10;96.20;;;;;;5030174;28;20040;-74
2022/12/14 11:14:59;;;;;;;6.40;4.28;;;9.40;95.30;;;;;;5025212;28;20026;-73
2022/12/14 11:17:33;;;;;;;11.60;5.18;;;9.40;95.20;;;;;;5031455;28;20037;-73
2022/12/14 11:20:24;;;;;;;10.07;4.90;;;9.40;95.00;;;;;;5030302;28;20539;-74
2022/12/14 11:22:54;;;;;;;8.32;4.25;;;9.40;95.40;;;;;;5029879;28;20519;-75
2022/12/14 11:25:41;;;;;;;6.38;4.35;;;9.40;96.10;;;;;;5032012;28;20037;-74
2022/12/14 11:28:47;;;;;;;13.52;7.53;;;9.30;95.40;;;;;;5031023;28;20036;-74
2022/12/14 11:31:36;;;;;;;7.63;4.68;;;9.30;95.20;;;;;;5028613;28;20025;-73
2022/12/14 11:34:04;;;;;;;6.80;4.03;;;9.40;96.20;;;;;;5028685;28;20095;-73
2022/12/14 11:39:34;;;;;;;6.70;4.07;;;9.50;95.60;;;;;;5027864;28;20048;-74
2022/12/14 11:42:01;;;;;;;9.93;5.20;;;9.50;96.10;;;;;;5029871;28;20033;-73
2022/12/14 11:44:32;;;;;;;5.35;3.08;;;9.50;96.30;;;;;;5030433;28;20105;-75
2022/12/14 11:46:57;;;;;;;5.07;2.85;;;9.60;96.00;;;;;;5030992;28;20072;-76
2022/12/14 11:49:30;;;;;;;5.17;2.87;;;9.70;95.50;;;;;;5030525;28;20030;-74
2022/12/14 11:51:59;;;;;;;7.85;3.17;;;9.80;95.80;;;;;;5030540;28;20061;-73
2022/12/14 11:54:25;;;;;;;5.95;3.03;;;9.90;95.00;;;;;;5031340;28;20026;-75
2022/12/14 11:57:02;;;;;;;7.05;2.92;;;10.00;95.00;;;;;;5029375;28;20033;-75
2022/12/14 11:59:37;;;;;;;7.13;3.25;;;10.10;95.10;;;;;;5030074;28;20053;-75
2022/12/14 12:02:17;;;;;;;5.88;2.58;;;10.20;95.90;;;;;;5041610;28;20040;-76
2022/12/14 12:04:53;;;;;;;5.57;2.35;;;10.30;95.30;;;;;;5028310;28;20039;-73
2022/12/14 12:07:42;;;;;;;6.65;2.53;;;10.30;94.80;;;;;;5031363;28;20057;-74
2022/12/14 12:10:27;;;;;;;7.22;2.90;;;10.20;94.50;;;;;;5030584;28;20026;-72
2022/12/14 12:12:59;;;;;;;7.63;2.90;;;10.30;95.40;;;;;;5029700;28;20083;-74
2022/12/14 12:15:45;;;;;;;3.70;2.03;;;10.40;94.50;;;;;;5030546;28;20095;-73
2022/12/14 12:18:16;;;;;;;3.72;2.42;;;10.40;94.00;;;;;;5030383;28;20057;-73
2022/12/14 12:21:00;;;;;;;2.88;2.10;;;10.40;94.10;;;;;;5044183;28;20260;-74
2022/12/14 12:23:34;;;;;;;2.38;1.65;;;10.50;93.90;;;;;;5031133;28;20032;-73
2022/12/14 12:26:03;;;;;;;4.97;2.30;;;10.50;93.90;;;;;;5024653;28;20029;-73
2022/12/14 12:28:33;;;;;;;3.03;1.95;;;10.60;93.40;;;;;;5029921;28;20071;-74
2022/12/14 12:31:05;;;;;;;2.95;1.77;;;10.70;93.40;;;;;;5030109;28;20048;-74
2022/12/14 12:33:46;;;;;;;2.95;2.20;;;10.80;93.20;;;;;;5030874;28;20033;-74
2022/12/14 12:36:16;;;;;;;6.45;3.08;;;10.80;93.60;;;;;;5030087;28;20065;-73
2022/12/14 12:39:05;;;;;;;5.30;3.75;;;10.90;93.90;;;;;;5025396;28;20041;-74
2022/12/14 12:41:50;;;;;;;2.72;1.52;;;11.10;93.90;;;;;;5031302;28;20043;-74
2022/12/14 12:44:45;;;;;;;6.22;2.95;;;11.20;92.30;;;;;;5029674;28;20034;-74
2022/12/14 12:47:28;;;;;;;5.07;1.83;;;11.30;93.00;;;;;;5002684;28;20501;-73
2022/12/14 12:49:59;;;;;;;3.22;1.45;;;11.40;92.50;;;;;;5029793;28;20025;-74
2022/12/14 12:52:30;;;;;;;4.05;2.28;;;11.40;91.90;;;;;;5030946;28;20034;-73
2022/12/14 12:55:07;;;;;;;4.45;2.03;;;11.40;92.50;;;;;;5028204;28;20025;-74
2022/12/14 12:57:53;;;;;;;3.45;1.83;;;11.50;92.70;;;;;;5033366;28;20039;-73
2022/12/14 13:00:24;;;;;;;2.88;1.90;;;11.40;92.30;;;;;;5034190;28;20037;-74
2022/12/14 13:03:00;;;;;;;3.70;2.40;;;11.40;92.50;;;;;;5032862;28;20473;-74
2022/12/14 13:05:28;;;;;;;4.57;2.57;;;11.40;93.00;;;;;;5034170;28;20029;-74
2022/12/14 13:07:58;;;;;;;5.97;2.05;;;11.30;92.10;;;;;;5033023;28;20116;-75
2022/12/14 13:10:30;;;;;;;4.07;2.03;;;11.30;92.20;;;;;;5034974;28;20029;-73
2022/12/14 13:13:07;;;;;;;6.72;3.67;;;11.30;92.60;;;;;;5033013;28;20077;-74
2022/12/14 13:15:59;;;;;;;6.05;2.45;;;11.30;93.10;;;;;;5031062;28;20025;-75
2022/12/14 13:18:40;;;;;;;2.28;1.52;;;11.40;92.60;;;;;;5034082;28;20493;-74
2022/12/14 13:21:23;;;;;;;7.38;1.48;;;11.30;92.50;;;;;;5032673;28;20391;-74
2022/12/14 13:23:48;;;;;;;1.80;1.23;;;11.30;92.00;;;;;;5031060;28;20037;-74